Eric Schwartz: (201) 953-9994
Short Hills Real Estate – By Eric Schwartz

Short Hills Real Estate

Welcome to Short Hills Homefinder, your guide to buying, selling & renting a home in Short Hills, NJ. I look forward to serving you, Eric Schwartz, Weichert, Realtors.

Short Hills/Millburn Closed Real Estate Transactions

Follow the Short Hills real estate market here. Every month we post every sold home that sold in Short Hills.

Millburn Closed Real Estate Transactions, August 2018*
STREET ADDRESS Community Style Bds Bths LP SP DOM Date
34 Cypress St*, Millburn Twp. Wyoming Colonial, 3 2 $625,000 $615,000 77 8/31/18
31 Knollwood Rd*, Millburn Twp. Old Short Hills Colonial,Cottage 5 4 $1,950,000 $1,995,000 14 8/31/18
74 TAYLOR ROAD, Millburn Twp. OLD SHORT HILLS Colonial, 5 4.2 $2,595,000 $2,400,000 35 8/31/18
1 Cora Way, Millburn Twp. Deerfield Colonial, 6 6.3 $2,999,999 $3,000,000 77 8/30/18
18 E HARTSHORN DR*, Millburn Twp. Deerfield SplitLev, 4 3 $1,298,000 $1,298,000 27 8/30/18
2 Browning Rd*, Millburn Twp.   Colonial, 6 5.1 $1,999,000 $1,999,000 56 8/28/18
14 Shelley Rd*, Millburn Twp. Poet Colonial, 6 6.1 $2,575,000 $2,500,000 37 8/27/18
17 DRYDEN TER*, Millburn Twp. Poet Section SplitLev, 4 2.1 $1,199,000 $1,135,000 69 8/27/18
52 WINTHROP RD*, Millburn Twp.   Colonial, 6 5.1 $2,079,000 $1,979,000 14 8/27/18
1 RIDGE TER*, Millburn Twp. Glenwood Tudor, 3 1.2 $848,000 $885,000 43 8/24/18
15 INWOOD RD*, Millburn Twp. Glenwood Colonial, 3 3.1 $950,000 $955,000 37 8/24/18
93 Slope Dr*, Millburn Twp. Hartshorn Colonial, 7 7.1 $2,488,000 $2,398,000 85 8/23/18
155 SAGAMORE RD*, Millburn Twp. Wyoming Colonial, 4 3.1 $1,150,000 $1,201,000 9 8/23/18
332 Lupine Way, Millburn Twp. Brookhaven Colonial, 4 2 $775,000 $750,000 16 8/23/18
56 Mountainview Rd*, Millburn Twp.   Colonial, 4 3.1 $1,095,000 $1,085,000 32 8/22/18
22 Mountainview Rd*, Millburn Twp. South Mountain Colonial, 4 3.1 $1,048,000 $1,020,000 19 8/21/18
63 SILVER SPRING RD*, Millburn Twp. Deerfield SplitLev, 3 2.1 $965,000 $995,000 18 8/21/18
20 ADAMS AVENUE, Millburn Twp. OLD SHORT HILLS Colonial, 5 4.3 $2,650,000 $2,450,000 150 8/20/18
825 Ridgewood Rd*, Millburn Twp. South Mountain Ranch, 3 2 $795,000 $797,000 29 8/20/18
17 Bodwell Ter*, Millburn Twp.   Tudor, 3 2.1 $719,000 $710,000 68 8/17/18
67 Hobart Ave*, Millburn Twp.   Colonial, 6 4.1 $1,845,000 $1,750,000 42 8/16/18
21 Coleridge Rd*, Millburn Twp. Poets Colonial, 6 6.1 $2,599,000 $2,450,000 134 8/10/18
70 Kean Rd*, Millburn Twp.   Colonial, 5 4.1 $1,499,000 $1,380,551 42 8/10/18
24 LEE TERRACE, Millburn Twp. Hartshorn RanchExp,Custom 5 5.1 $1,495,000 $1,500,000 7 8/10/18
9 FARVIEW RD*, Millburn Twp.   Contemp,Ranch,Custom 4 2.1 $1,395,000 $1,332,826 32 8/10/18
443 LONG HILL DR*, Millburn Twp. Deerfield Colonial, 4 3.1 $1,750,000 $1,625,000 11 8/10/18
205 Hobart Ave*, Millburn Twp.   RanchExp, 5 4.1 $1,090,000 $1,037,500 45 8/8/18
395 Hartshorn Dr*, Millburn Twp. Hartshorn Custom,RanchRas 5 3.1 $1,399,000 $1,330,000 49 8/3/18
7 Reeve Cir*, Millburn Twp.   Colonial, 5 2.1 $889,000 $845,000 20 8/3/18
38 South Terrace, Millburn Twp. Glenwood Colonial, 4 2.2 $1,095,000 $1,120,000 30 8/2/18
10 Pine Ter E*, Millburn Twp. Glenwood Colonial, 7 4.2 $1,895,000 $1,865,000 29 8/2/18
74 Old Short Hills Rd*, Millburn Twp.   Colonial, 5 4.1 $1,690,000 $1,670,000 38 8/2/18

All Short Hills Sold Homes

Information deemed reliable but not guaranteed. Not all sales made by Eric Schwartz or Weichert, Realtors. Source: GSMLS